Time;durP1;ratioP1;P1;durP2;ratioP2;P2;SDS_P1;SDS_P2;PMS_P1;PMS_P2;Temp;Humidity;BMP_temperature;BMP_pressure;BME280_temperature;BME280_humidity;BME280_pressure;Samples;Min_cycle;Max_cycle;Signal;HPM_P1;HPM_P2
2021/10/01 00:01:15;;;;;;;6.50;3.30;;;;;;;;;;4851081;29;20190;-92
2021/10/01 00:04:28;;;;;;;7.87;3.30;;;;;;;;;;4852685;29;20193;-91
2021/10/01 00:07:40;;;;;;;7.27;3.30;;;;;;;;;;4852265;29;20194;-91
2021/10/01 00:10:51;;;;;;;9.93;3.20;;;;;;;;;;4852685;29;20211;-92
2021/10/01 00:14:03;;;;;;;6.83;3.23;;;;;;;;;;4851610;29;20199;-91
2021/10/01 00:17:15;;;;;;;7.27;3.20;;;;;;;;;;4852333;29;20191;-91
2021/10/01 00:20:29;;;;;;;4.83;3.47;;;;;;;;;;4852831;29;20199;-91
2021/10/01 00:23:43;;;;;;;10.20;3.47;;;;;;;;;;4852528;29;20199;-91
2021/10/01 00:26:54;;;;;;;7.03;3.47;;;;;;;;;;4852848;29;20207;-91
2021/10/01 00:30:06;;;;;;;10.00;3.90;;;;;;;;;;4854261;29;20225;-92
2021/10/01 00:33:17;;;;;;;10.07;4.13;;;;;;;;;;4853824;29;20194;-92
2021/10/01 00:36:30;;;;;;;8.47;3.87;;;;;;;;;;4852746;29;20684;-93
2021/10/01 00:39:42;;;;;;;9.63;3.47;;;;;;;;;;4852196;29;20235;-90
2021/10/01 00:42:54;;;;;;;9.20;3.63;;;;;;;;;;4851840;29;20332;-92
2021/10/01 00:46:05;;;;;;;9.90;3.63;;;;;;;;;;4850939;29;20195;-90
2021/10/01 00:49:17;;;;;;;9.83;3.90;;;;;;;;;;4851157;29;20195;-91
2021/10/01 00:52:30;;;;;;;11.07;3.53;;;;;;;;;;4853118;29;20232;-92
2021/10/01 00:55:42;;;;;;;9.80;3.63;;;;;;;;;;4851746;29;20187;-91
2021/10/01 00:58:57;;;;;;;9.80;3.53;;;;;;;;;;4851785;29;20195;-91
2021/10/01 01:02:09;;;;;;;6.53;3.47;;;;;;;;;;4852434;29;20670;-91
2021/10/01 01:05:50;;;;;;;5.97;3.40;;;;;;;;;;4851827;29;20339;-91
2021/10/01 01:09:08;;;;;;;7.13;3.43;;;;;;;;;;4851041;29;20198;-89
2021/10/01 01:12:31;;;;;;;5.03;2.97;;;;;;;;;;4851726;29;20210;-90
2021/10/01 01:15:50;;;;;;;4.63;2.70;;;;;;;;;;4851975;29;20207;-91
2021/10/01 01:19:03;;;;;;;14.37;3.47;;;;;;;;;;4853294;29;20234;-91
2021/10/01 01:22:23;;;;;;;4.83;3.03;;;;;;;;;;4852074;29;20202;-91
2021/10/01 01:25:45;;;;;;;8.47;3.50;;;;;;;;;;4850716;29;20207;-92
2021/10/01 01:29:07;;;;;;;6.23;3.13;;;;;;;;;;4852551;29;20226;-90
2021/10/01 01:32:23;;;;;;;5.43;3.30;;;;;;;;;;4852111;29;20222;-91
2021/10/01 01:35:36;;;;;;;7.00;3.20;;;;;;;;;;4850393;29;20199;-91
2021/10/01 01:38:51;;;;;;;10.13;3.00;;;;;;;;;;4852008;29;20199;-90
2021/10/01 01:42:03;;;;;;;4.20;3.00;;;;;;;;;;4851958;29;20203;-91
2021/10/01 01:45:17;;;;;;;11.03;3.60;;;;;;;;;;4850687;29;20251;-91
2021/10/01 01:48:31;;;;;;;7.07;3.50;;;;;;;;;;4851493;29;20199;-91
2021/10/01 01:51:43;;;;;;;6.33;3.80;;;;;;;;;;4851885;29;20226;-91
2021/10/01 01:54:55;;;;;;;7.73;3.50;;;;;;;;;;4851856;29;20292;-90
2021/10/01 01:58:08;;;;;;;6.40;3.50;;;;;;;;;;4851083;29;20537;-93
2021/10/01 02:01:38;;;;;;;6.30;3.07;;;;;;;;;;4852821;29;20259;-92
2021/10/01 02:05:19;;;;;;;5.60;2.97;;;;;;;;;;4851171;29;20222;-92
2021/10/01 02:08:31;;;;;;;5.40;3.27;;;;;;;;;;4851664;29;20206;-92
2021/10/01 02:11:44;;;;;;;5.43;3.43;;;;;;;;;;4851475;29;20222;-90
2021/10/01 02:14:59;;;;;;;7.60;2.87;;;;;;;;;;4852291;29;20208;-91
2021/10/01 02:18:11;;;;;;;5.43;2.93;;;;;;;;;;4851647;29;20339;-89
2021/10/01 02:21:25;;;;;;;6.50;3.03;;;;;;;;;;4850504;29;20246;-90
2021/10/01 02:24:39;;;;;;;6.63;2.70;;;;;;;;;;4851967;29;20666;-89
2021/10/01 02:27:53;;;;;;;7.10;2.70;;;;;;;;;;4849569;29;20585;-92
2021/10/01 02:31:07;;;;;;;5.90;2.80;;;;;;;;;;4850523;29;20275;-91
2021/10/01 02:34:22;;;;;;;4.10;2.70;;;;;;;;;;4851239;29;20206;-90
2021/10/01 02:37:34;;;;;;;4.63;2.70;;;;;;;;;;4850864;29;20568;-91
2021/10/01 02:40:46;;;;;;;4.47;2.90;;;;;;;;;;4852590;29;20193;-91
2021/10/01 02:43:58;;;;;;;6.50;3.03;;;;;;;;;;4853463;29;20194;-91
2021/10/01 02:47:10;;;;;;;4.30;2.70;;;;;;;;;;4851136;29;20195;-92
2021/10/01 02:50:23;;;;;;;6.67;2.80;;;;;;;;;;4851582;29;20214;-92
2021/10/01 02:53:42;;;;;;;4.80;3.10;;;;;;;;;;4851538;29;20214;-91
2021/10/01 02:56:56;;;;;;;10.03;3.07;;;;;;;;;;4852565;29;20650;-91
2021/10/01 03:00:08;;;;;;;5.70;2.80;;;;;;;;;;4852903;29;20214;-91
2021/10/01 03:03:21;;;;;;;6.17;2.87;;;;;;;;;;4852054;29;20202;-91
2021/10/01 03:06:35;;;;;;;4.60;2.53;;;;;;;;;;4851292;29;20203;-90
2021/10/01 03:09:49;;;;;;;3.97;2.80;;;;;;;;;;4852952;29;20250;-91
2021/10/01 03:13:02;;;;;;;4.00;2.80;;;;;;;;;;4852727;29;20715;-92
2021/10/01 03:16:14;;;;;;;8.67;2.90;;;;;;;;;;4851760;29;20191;-91
2021/10/01 03:19:27;;;;;;;6.10;2.73;;;;;;;;;;4851097;29;20332;-91
2021/10/01 03:22:40;;;;;;;7.83;3.00;;;;;;;;;;4852301;29;20274;-91
2021/10/01 03:25:55;;;;;;;5.10;3.00;;;;;;;;;;4851859;29;20670;-91
2021/10/01 03:29:07;;;;;;;5.47;3.40;;;;;;;;;;4851129;29;20222;-91
2021/10/01 03:32:23;;;;;;;5.43;3.00;;;;;;;;;;4851486;29;20222;-90
2021/10/01 03:35:34;;;;;;;4.50;3.10;;;;;;;;;;4855160;29;20222;-91
2021/10/01 03:38:47;;;;;;;4.97;3.10;;;;;;;;;;4855329;29;20228;-91
2021/10/01 03:42:03;;;;;;;4.83;2.80;;;;;;;;;;4856118;29;20187;-90
2021/10/01 03:45:15;;;;;;;7.33;2.90;;;;;;;;;;4855660;29;20202;-90
2021/10/01 03:48:27;;;;;;;8.23;3.23;;;;;;;;;;4856703;29;20334;-92
2021/10/01 03:51:50;;;;;;;3.40;2.50;;;;;;;;;;4857358;29;20226;-91
2021/10/01 03:55:05;;;;;;;4.47;2.70;;;;;;;;;;4856085;29;20248;-91
2021/10/01 03:58:18;;;;;;;7.37;3.50;;;;;;;;;;4857220;29;20210;-92
2021/10/01 04:01:32;;;;;;;5.03;2.90;;;;;;;;;;4856892;29;20202;-91
2021/10/01 04:05:13;;;;;;;4.80;3.27;;;;;;;;;;4856677;29;20207;-90
2021/10/01 04:08:25;;;;;;;5.63;3.20;;;;;;;;;;4855569;29;20210;-92
2021/10/01 04:11:38;;;;;;;5.40;3.23;;;;;;;;;;4856094;29;20245;-90
2021/10/01 04:14:52;;;;;;;6.90;3.00;;;;;;;;;;4857391;29;20186;-92
2021/10/01 04:18:04;;;;;;;6.77;4.00;;;;;;;;;;4857626;29;20187;-90
2021/10/01 04:21:17;;;;;;;7.57;4.00;;;;;;;;;;4858443;29;20288;-91
2021/10/01 04:24:30;;;;;;;7.63;3.17;;;;;;;;;;4855877;29;20217;-93
2021/10/01 04:27:47;;;;;;;8.10;3.87;;;;;;;;;;4856994;29;20244;-90
2021/10/01 04:31:01;;;;;;;6.70;3.70;;;;;;;;;;4856915;29;20211;-90
2021/10/01 04:34:13;;;;;;;8.90;3.63;;;;;;;;;;4856015;29;20309;-91
2021/10/01 04:37:25;;;;;;;11.23;4.87;;;;;;;;;;4854761;29;20251;-90
2021/10/01 04:40:37;;;;;;;8.43;4.20;;;;;;;;;;4856035;29;20203;-89
2021/10/01 04:43:49;;;;;;;11.07;4.40;;;;;;;;;;4854579;29;20248;-90
2021/10/01 04:47:21;;;;;;;8.90;5.10;;;;;;;;;;4854763;29;20667;-90
2021/10/01 04:50:34;;;;;;;15.23;5.60;;;;;;;;;;4855213;29;20210;-91
2021/10/01 04:53:45;;;;;;;14.87;4.33;;;;;;;;;;4853639;29;20214;-89
2021/10/01 04:56:57;;;;;;;8.10;3.60;;;;;;;;;;4855442;29;20258;-89
2021/10/01 05:00:18;;;;;;;7.47;3.73;;;;;;;;;;4854833;29;20728;-91
2021/10/01 05:08:29;;;;;;;7.33;3.67;;;;;;;;;;4855235;29;20189;-90
2021/10/01 05:11:59;;;;;;;5.30;3.30;;;;;;;;;;4855577;29;20747;-90
2021/10/01 05:15:30;;;;;;;5.83;3.40;;;;;;;;;;4856471;29;20259;-90
2021/10/01 05:19:00;;;;;;;9.03;3.70;;;;;;;;;;4856813;29;20301;-88
2021/10/01 05:22:39;;;;;;;11.53;3.77;;;;;;;;;;4857831;29;20239;-89
2021/10/01 05:25:51;;;;;;;6.83;3.83;;;;;;;;;;4854025;29;20346;-91
2021/10/01 05:29:15;;;;;;;8.43;4.00;;;;;;;;;;4855523;29;20283;-91
2021/10/01 05:32:28;;;;;;;8.70;4.10;;;;;;;;;;4856046;29;20250;-89
2021/10/01 05:35:50;;;;;;;10.50;4.83;;;;;;;;;;4857181;29;20206;-91
2021/10/01 05:42:28;;;;;;;13.60;3.67;;;;;;;;;;4857403;29;20198;-92
2021/10/01 05:45:42;;;;;;;7.03;4.00;;;;;;;;;;4855606;29;20801;-89
2021/10/01 05:49:19;;;;;;;5.63;3.77;;;;;;;;;;4855635;29;20222;-89
2021/10/01 05:52:58;;;;;;;5.87;3.73;;;;;;;;;;4853396;29;20264;-91
2021/10/01 05:56:28;;;;;;;6.60;3.90;;;;;;;;;;4855400;29;20259;-91
2021/10/01 06:00:08;;;;;;;11.77;3.73;;;;;;;;;;4856311;29;20199;-92
2021/10/01 06:03:37;;;;;;;11.83;4.03;;;;;;;;;;4855374;29;20201;-91
2021/10/01 06:06:50;;;;;;;7.53;4.27;;;;;;;;;;4855124;29;20198;-89
2021/10/01 06:10:02;;;;;;;10.17;3.90;;;;;;;;;;4854739;29;20274;-92
2021/10/01 06:13:14;;;;;;;5.83;3.80;;;;;;;;;;4853799;29;20230;-89
2021/10/01 06:16:26;;;;;;;12.80;4.93;;;;;;;;;;4853383;29;20607;-90
2021/10/01 06:19:43;;;;;;;6.80;3.60;;;;;;;;;;4853501;29;20198;-89
2021/10/01 06:22:55;;;;;;;11.17;4.23;;;;;;;;;;4854073;29;20213;-89
2021/10/01 06:26:07;;;;;;;7.97;4.67;;;;;;;;;;4854498;29;20336;-90
2021/10/01 06:29:19;;;;;;;12.63;3.70;;;;;;;;;;4853943;29;20243;-89
2021/10/01 06:32:35;;;;;;;7.07;4.23;;;;;;;;;;4852794;29;20202;-90
2021/10/01 06:35:47;;;;;;;9.10;4.17;;;;;;;;;;4855247;29;20202;-91
2021/10/01 06:38:59;;;;;;;8.37;4.07;;;;;;;;;;4856754;29;20232;-92
2021/10/01 06:42:14;;;;;;;11.00;4.27;;;;;;;;;;4854369;29;20211;-90
2021/10/01 06:45:28;;;;;;;9.43;3.97;;;;;;;;;;4855179;29;20194;-91
2021/10/01 06:48:49;;;;;;;6.93;4.00;;;;;;;;;;4852694;29;20223;-91
2021/10/01 06:52:28;;;;;;;6.80;3.93;;;;;;;;;;4851685;29;20363;-92
2021/10/01 07:23:47;;;;;;;7.87;4.20;;;;;;;;;;4857059;29;20662;-91
2021/10/01 07:34:57;;;;;;;7.40;4.53;;;;;;;;;;4860244;29;20195;-90
2021/10/01 08:20:03;;;;;;;2.90;2.13;;;;;;;;;;4856040;29;20643;-91
2021/10/01 08:23:17;;;;;;;3.92;2.50;;;;;;;;;;4858173;29;20191;-90
2021/10/01 08:26:30;;;;;;;5.13;2.22;;;;;;;;;;4857310;29;20219;-92
2021/10/01 08:29:42;;;;;;;3.83;2.30;;;;;;;;;;4856509;29;20243;-91
2021/10/01 08:32:54;;;;;;;6.28;2.55;;;;;;;;;;4857261;29;20226;-92
2021/10/01 08:36:06;;;;;;;3.30;1.90;;;;;;;;;;4855567;29;20203;-91
2021/10/01 08:39:23;;;;;;;4.30;2.55;;;;;;;;;;4855917;29;20199;-91
2021/10/01 08:42:35;;;;;;;4.65;1.90;;;;;;;;;;4853506;29;20728;-92
2021/10/01 08:45:48;;;;;;;4.90;1.83;;;;;;;;;;4855249;29;20195;-92
2021/10/01 08:49:00;;;;;;;4.95;2.05;;;;;;;;;;4856624;29;20210;-92
2021/10/01 08:52:12;;;;;;;3.00;1.48;;;;;;;;;;4855756;29;20218;-91
2021/10/01 08:55:25;;;;;;;5.43;1.60;;;;;;;;;;4855078;29;20281;-91
2021/10/01 08:58:37;;;;;;;3.70;1.77;;;;;;;;;;4855274;29;20190;-91
2021/10/01 09:01:49;;;;;;;3.30;1.50;;;;;;;;;;4855881;29;20198;-92
2021/10/01 09:05:01;;;;;;;5.13;1.83;;;;;;;;;;4854704;29;20214;-90
2021/10/01 09:08:13;;;;;;;4.45;2.03;;;;;;;;;;4854881;29;20214;-91
2021/10/01 09:11:30;;;;;;;4.80;1.40;;;;;;;;;;4857099;29;20274;-92
2021/10/01 09:14:45;;;;;;;6.13;1.77;;;;;;;;;;4855703;29;20194;-92
2021/10/01 09:17:58;;;;;;;7.80;1.95;;;;;;;;;;4853898;29;20194;-91
2021/10/01 09:21:11;;;;;;;5.38;1.90;;;;;;;;;;4857637;29;20214;-91
2021/10/01 09:24:26;;;;;;;7.13;1.80;;;;;;;;;;4854068;29;20305;-93
2021/10/01 09:27:39;;;;;;;7.65;1.92;;;;;;;;;;4853587;29;20199;-92
2021/10/01 09:30:51;;;;;;;5.60;1.50;;;;;;;;;;4850716;29;20186;-92
2021/10/01 09:34:02;;;;;;;5.43;1.50;;;;;;;;;;4852191;29;20261;-91
2021/10/01 09:41:16;;;;;;;2.72;1.60;;;;;;;;;;4852328;29;20232;-90
2021/10/01 09:44:31;;;;;;;5.50;1.40;;;;;;;;;;4853058;29;20205;-91
2021/10/01 09:47:44;;;;;;;2.60;1.45;;;;;;;;;;4852218;29;20255;-91
2021/10/01 09:51:08;;;;;;;6.75;1.75;;;;;;;;;;4852285;29;20202;-92
2021/10/01 09:54:21;;;;;;;3.75;1.63;;;;;;;;;;4850913;29;20238;-91
2021/10/01 09:57:32;;;;;;;6.72;1.88;;;;;;;;;;4851517;29;20324;-91
2021/10/01 10:00:46;;;;;;;9.95;1.90;;;;;;;;;;4851288;29;20194;-92
2021/10/01 10:07:25;;;;;;;6.65;2.03;;;;;;;;;;4856037;29;20232;-90
2021/10/01 10:10:46;;;;;;;6.03;2.70;;;;;;;;;;4854670;29;20236;-89
2021/10/01 10:13:59;;;;;;;3.25;1.73;;;;;;;;;;4854094;29;20823;-90
2021/10/01 10:17:16;;;;;;;4.20;2.15;;;;;;;;;;4852747;29;20211;-92
2021/10/01 10:20:28;;;;;;;6.55;1.67;;;;;;;;;;4849931;29;20245;-90
2021/10/01 10:23:40;;;;;;;5.28;1.98;;;;;;;;;;4853261;29;20195;-90
2021/10/01 10:26:52;;;;;;;5.25;1.75;;;;;;;;;;4851199;29;20186;-91
2021/10/01 10:30:08;;;;;;;5.60;1.40;;;;;;;;;;4849779;29;20222;-91
2021/10/01 10:33:38;;;;;;;9.05;1.65;;;;;;;;;;4851905;29;20762;-91
2021/10/01 10:37:00;;;;;;;5.25;1.77;;;;;;;;;;4852671;29;20235;-90
2021/10/01 10:40:13;;;;;;;5.15;1.95;;;;;;;;;;4854223;29;20206;-90
2021/10/01 10:43:26;;;;;;;7.18;1.70;;;;;;;;;;4853048;29;20321;-91
2021/10/01 10:46:41;;;;;;;5.00;1.75;;;;;;;;;;4857427;29;20199;-91
2021/10/01 10:49:53;;;;;;;4.90;2.47;;;;;;;;;;4856394;29;20638;-91
2021/10/01 10:53:13;;;;;;;5.28;1.83;;;;;;;;;;4858273;29;20218;-91
2021/10/01 10:56:26;;;;;;;5.22;1.85;;;;;;;;;;4854856;29;20230;-92
2021/10/01 10:59:38;;;;;;;3.97;1.63;;;;;;;;;;4857298;29;20202;-91
2021/10/01 11:02:51;;;;;;;7.13;2.03;;;;;;;;;;4856460;29;20194;-93
2021/10/01 11:06:18;;;;;;;4.43;2.03;;;;;;;;;;4857614;29;20203;-92
2021/10/01 11:09:34;;;;;;;4.88;2.03;;;;;;;;;;4857153;29;20239;-93
2021/10/01 11:12:47;;;;;;;3.22;1.73;;;;;;;;;;4856793;29;20217;-91
2021/10/01 11:16:18;;;;;;;5.47;1.80;;;;;;;;;;4858759;29;20281;-93
2021/10/01 11:19:36;;;;;;;5.47;2.10;;;;;;;;;;4855410;29;20201;-93
2021/10/01 11:22:49;;;;;;;5.20;1.90;;;;;;;;;;4857263;29;20203;-91
2021/10/01 11:26:02;;;;;;;5.88;2.10;;;;;;;;;;4854595;29;20263;-90
2021/10/01 11:29:21;;;;;;;8.93;2.47;;;;;;;;;;4854497;29;20312;-93
2021/10/01 11:32:33;;;;;;;7.55;2.00;;;;;;;;;;4857412;29;20277;-91
2021/10/01 11:35:49;;;;;;;7.47;1.75;;;;;;;;;;4855413;29;20320;-92
2021/10/01 11:39:06;;;;;;;5.25;1.60;;;;;;;;;;4854679;29;20194;-91
2021/10/01 11:42:25;;;;;;;5.68;1.90;;;;;;;;;;4855692;29;20678;-90
2021/10/01 11:45:38;;;;;;;3.88;1.60;;;;;;;;;;4857355;29;20770;-90
2021/10/01 11:48:54;;;;;;;4.82;1.85;;;;;;;;;;4858249;29;20206;-91
2021/10/01 11:55:35;;;;;;;5.45;1.98;;;;;;;;;;4857422;29;20199;-91
2021/10/01 11:58:56;;;;;;;7.43;1.63;;;;;;;;;;4856453;29;20602;-90
2021/10/01 12:05:40;;;;;;;2.90;1.60;;;;;;;;;;4856833;29;20232;-91
2021/10/01 12:08:56;;;;;;;7.97;1.73;;;;;;;;;;4860195;29;20260;-92
2021/10/01 12:12:09;;;;;;;5.93;1.95;;;;;;;;;;4855950;29;20203;-90
2021/10/01 12:15:34;;;;;;;4.10;2.00;;;;;;;;;;4855482;29;20208;-89
2021/10/01 12:18:54;;;;;;;3.33;1.80;;;;;;;;;;4856896;29;20194;-91
2021/10/01 12:22:07;;;;;;;19.60;5.78;;;;;;;;;;4854593;29;20352;-92
2021/10/01 12:25:24;;;;;;;5.00;2.10;;;;;;;;;;4854909;29;20195;-90
2021/10/01 12:28:36;;;;;;;3.15;1.80;;;;;;;;;;4856446;29;20321;-89
2021/10/01 12:31:50;;;;;;;7.63;1.70;;;;;;;;;;4854786;29;20202;-91
2021/10/01 12:35:03;;;;;;;6.53;1.80;;;;;;;;;;4855254;29;20295;-89
2021/10/01 12:38:15;;;;;;;9.00;3.00;;;;;;;;;;4855835;29;20198;-90
2021/10/01 12:41:29;;;;;;;5.68;1.80;;;;;;;;;;4853905;29;20206;-91
2021/10/01 12:44:45;;;;;;;9.10;2.72;;;;;;;;;;4855442;29;20293;-92
2021/10/01 12:47:58;;;;;;;3.05;1.50;;;;;;;;;;4857139;29;20681;-90
2021/10/01 12:51:24;;;;;;;4.00;1.52;;;;;;;;;;4855767;29;20831;-91
2021/10/01 12:54:38;;;;;;;6.55;2.40;;;;;;;;;;4855927;29;20238;-92
2021/10/01 12:57:50;;;;;;;8.48;1.63;;;;;;;;;;4859949;29;20206;-90
2021/10/01 13:01:17;;;;;;;2.67;1.58;;;;;;;;;;4858452;29;20202;-90
2021/10/01 13:04:31;;;;;;;3.20;1.60;;;;;;;;;;4857227;29;20230;-91
2021/10/01 13:07:43;;;;;;;4.57;1.50;;;;;;;;;;4855607;29;20251;-89
2021/10/01 13:10:59;;;;;;;6.32;1.67;;;;;;;;;;4856813;29;20200;-89
2021/10/01 13:14:16;;;;;;;2.90;1.70;;;;;;;;;;4854688;29;20263;-92
2021/10/01 13:17:28;;;;;;;2.60;1.63;;;;;;;;;;4856934;29;20213;-93
2021/10/01 13:20:43;;;;;;;7.00;1.60;;;;;;;;;;4856812;29;20248;-90
2021/10/01 13:23:56;;;;;;;3.45;1.38;;;;;;;;;;4857007;29;20198;-90
2021/10/01 13:27:11;;;;;;;4.05;2.22;;;;;;;;;;4858343;29;20244;-92
2021/10/01 13:30:23;;;;;;;3.75;1.30;;;;;;;;;;4856090;29;20222;-92
2021/10/01 13:33:36;;;;;;;6.25;1.70;;;;;;;;;;4855009;29;20267;-91
2021/10/01 13:36:50;;;;;;;6.18;1.60;;;;;;;;;;4853954;29;20207;-91
2021/10/01 13:40:09;;;;;;;5.28;1.80;;;;;;;;;;4854061;29;20195;-90
2021/10/01 13:43:20;;;;;;;2.63;1.38;;;;;;;;;;4853027;29;20322;-93
2021/10/01 13:46:34;;;;;;;4.13;1.30;;;;;;;;;;4853477;29;20232;-92
2021/10/01 13:49:46;;;;;;;4.68;1.58;;;;;;;;;;4852544;29;20241;-92
2021/10/01 13:53:01;;;;;;;4.53;1.58;;;;;;;;;;4853446;29;20198;-91
2021/10/01 13:56:13;;;;;;;4.00;2.30;;;;;;;;;;4854851;29;20195;-90
2021/10/01 13:59:24;;;;;;;3.72;1.65;;;;;;;;;;4853649;29;20324;-92
2021/10/01 14:02:40;;;;;;;4.38;1.45;;;;;;;;;;4852962;29;20261;-91
2021/10/01 14:05:55;;;;;;;4.57;1.42;;;;;;;;;;4851203;29;20238;-92
2021/10/01 14:09:08;;;;;;;3.33;1.25;;;;;;;;;;4852976;29;20202;-92
2021/10/01 14:12:20;;;;;;;3.20;1.30;;;;;;;;;;4852808;29;20328;-89
2021/10/01 14:15:31;;;;;;;3.35;1.95;;;;;;;;;;4853152;29;20211;-90
2021/10/01 14:18:43;;;;;;;5.22;1.88;;;;;;;;;;4852334;29;20193;-91
2021/10/01 14:21:56;;;;;;;3.65;1.80;;;;;;;;;;4853661;29;20308;-90
2021/10/01 14:25:12;;;;;;;3.58;1.58;;;;;;;;;;4852863;29;20223;-92
2021/10/01 14:28:25;;;;;;;2.42;1.30;;;;;;;;;;4852533;29;20219;-91
2021/10/01 14:31:38;;;;;;;6.05;2.22;;;;;;;;;;4854941;29;20182;-91
2021/10/01 14:34:49;;;;;;;2.53;1.55;;;;;;;;;;4853743;29;20199;-91
2021/10/01 14:38:06;;;;;;;3.28;1.67;;;;;;;;;;4852554;29;20707;-91
2021/10/01 14:41:19;;;;;;;6.25;1.50;;;;;;;;;;4851296;29;20674;-89
2021/10/01 14:44:31;;;;;;;3.20;1.40;;;;;;;;;;4851561;29;20566;-91
2021/10/01 14:47:43;;;;;;;2.83;1.10;;;;;;;;;;4852084;29;20247;-90
2021/10/01 14:50:55;;;;;;;1.20;0.90;;;;;;;;;;4852743;29;20206;-93
2021/10/01 14:54:07;;;;;;;1.98;1.00;;;;;;;;;;4853101;29;20315;-90
2021/10/01 14:57:21;;;;;;;1.95;0.90;;;;;;;;;;4848979;29;20214;-92
2021/10/01 15:00:33;;;;;;;1.92;0.80;;;;;;;;;;4850757;29;20283;-92
2021/10/01 15:03:46;;;;;;;2.35;0.90;;;;;;;;;;4851468;29;20243;-92
2021/10/01 15:06:59;;;;;;;2.08;0.98;;;;;;;;;;4853997;29;20222;-92
2021/10/01 15:10:11;;;;;;;4.53;0.90;;;;;;;;;;4852464;29;20195;-93
2021/10/01 15:13:24;;;;;;;5.00;1.42;;;;;;;;;;4852442;29;20199;-92
2021/10/01 15:16:39;;;;;;;2.90;1.20;;;;;;;;;;4850853;29;20199;-90
2021/10/01 15:19:55;;;;;;;3.08;0.90;;;;;;;;;;4853778;29;20203;-90
2021/10/01 15:23:07;;;;;;;2.28;0.95;;;;;;;;;;4840867;29;20227;-92
2021/10/01 15:26:19;;;;;;;2.10;0.73;;;;;;;;;;4850072;29;20226;-90
2021/10/01 15:29:53;;;;;;;7.05;1.00;;;;;;;;;;4847803;29;20663;-91
2021/10/01 15:33:05;;;;;;;4.15;2.33;;;;;;;;;;4856423;29;20223;-92
2021/10/01 15:36:19;;;;;;;4.28;1.27;;;;;;;;;;4855150;29;20675;-90
2021/10/01 15:39:31;;;;;;;1.75;1.00;;;;;;;;;;4854491;29;20195;-93
2021/10/01 15:42:44;;;;;;;4.18;1.50;;;;;;;;;;4858228;29;20190;-91
2021/10/01 15:45:58;;;;;;;3.22;1.20;;;;;;;;;;4856473;29;20203;-92
2021/10/01 15:49:10;;;;;;;3.55;1.58;;;;;;;;;;4856099;29;20202;-91
2021/10/01 15:52:29;;;;;;;1.73;1.15;;;;;;;;;;4856965;29;20553;-91
2021/10/01 15:55:41;;;;;;;4.18;1.30;;;;;;;;;;4856067;29;20697;-90
2021/10/01 15:58:53;;;;;;;2.38;1.33;;;;;;;;;;4855362;29;20250;-90
2021/10/01 16:02:06;;;;;;;5.47;1.30;;;;;;;;;;4855596;29;20247;-90
2021/10/01 16:05:34;;;;;;;3.83;1.30;;;;;;;;;;4853995;29;20655;-90
2021/10/01 16:08:46;;;;;;;3.67;1.85;;;;;;;;;;4853192;29;20191;-89
2021/10/01 16:11:59;;;;;;;5.38;1.60;;;;;;;;;;4853374;29;20203;-90
2021/10/01 16:15:11;;;;;;;3.75;1.30;;;;;;;;;;4853197;29;20243;-91
2021/10/01 16:18:24;;;;;;;4.68;2.40;;;;;;;;;;4850974;29;20299;-92
2021/10/01 16:21:35;;;;;;;5.70;2.00;;;;;;;;;;4852822;29;20199;-90
2021/10/01 16:24:46;;;;;;;4.15;2.22;;;;;;;;;;4852153;29;20230;-90
2021/10/01 16:28:01;;;;;;;4.20;1.60;;;;;;;;;;4852023;29;20211;-89
2021/10/01 16:31:13;;;;;;;5.47;2.10;;;;;;;;;;4853188;29;20198;-91
2021/10/01 16:34:27;;;;;;;3.17;1.73;;;;;;;;;;4853289;29;20203;-90
2021/10/01 16:37:39;;;;;;;7.90;4.65;;;;;;;;;;4850988;29;20259;-88
2021/10/01 16:40:51;;;;;;;7.15;2.60;;;;;;;;;;4852785;29;20198;-90
2021/10/01 16:44:02;;;;;;;9.35;1.90;;;;;;;;;;4851742;29;20202;-90
2021/10/01 16:47:14;;;;;;;4.30;2.10;;;;;;;;;;4850938;29;20232;-88
2021/10/01 16:50:28;;;;;;;4.57;1.65;;;;;;;;;;4852010;29;20329;-91
2021/10/01 16:53:40;;;;;;;3.05;1.98;;;;;;;;;;4853080;29;20279;-90
2021/10/01 16:56:52;;;;;;;8.63;4.07;;;;;;;;;;4853299;29;20653;-90
2021/10/01 17:00:05;;;;;;;9.50;3.65;;;;;;;;;;4852623;29;20278;-90
2021/10/01 17:03:18;;;;;;;8.55;3.03;;;;;;;;;;4853330;29;20339;-88
2021/10/01 17:06:31;;;;;;;7.55;3.30;;;;;;;;;;4854298;29;20227;-90
2021/10/01 17:09:43;;;;;;;4.07;2.20;;;;;;;;;;4854466;29;20197;-89
2021/10/01 17:12:55;;;;;;;4.97;2.85;;;;;;;;;;4851992;29;20190;-89
2021/10/01 17:16:07;;;;;;;7.45;2.55;;;;;;;;;;4851731;29;20194;-91
2021/10/01 17:19:19;;;;;;;4.97;2.67;;;;;;;;;;4854304;29;20264;-90
2021/10/01 17:22:33;;;;;;;4.97;3.08;;;;;;;;;;4851493;29;20307;-93
2021/10/01 17:25:44;;;;;;;9.98;2.47;;;;;;;;;;4851849;29;20251;-92
2021/10/01 17:29:00;;;;;;;4.03;1.95;;;;;;;;;;4850538;29;20309;-90
2021/10/01 17:32:11;;;;;;;7.75;4.00;;;;;;;;;;4852894;29;20203;-91
2021/10/01 17:35:22;;;;;;;12.52;5.63;;;;;;;;;;4853289;29;20198;-90
2021/10/01 17:38:37;;;;;;;14.38;4.65;;;;;;;;;;4856834;29;20194;-91
2021/10/01 17:41:49;;;;;;;21.88;9.60;;;;;;;;;;4856404;29;20199;-92
2021/10/01 17:45:00;;;;;;;10.32;5.22;;;;;;;;;;4855408;29;20221;-91
2021/10/01 17:48:12;;;;;;;5.65;2.50;;;;;;;;;;4855437;29;20291;-91
2021/10/01 17:51:25;;;;;;;8.60;3.28;;;;;;;;;;4855538;29;20191;-92
2021/10/01 17:54:47;;;;;;;10.95;3.75;;;;;;;;;;4856897;29;20190;-90
2021/10/01 17:58:00;;;;;;;17.98;13.20;;;;;;;;;;4855245;29;20218;-91
2021/10/01 18:01:11;;;;;;;9.40;4.47;;;;;;;;;;4857075;29;20240;-92
2021/10/01 18:08:55;;;;;;;6.20;3.35;;;;;;;;;;4851597;29;20263;-92
2021/10/01 18:12:08;;;;;;;9.90;4.18;;;;;;;;;;4850128;29;20195;-90
2021/10/01 18:15:22;;;;;;;15.07;5.28;;;;;;;;;;4853219;29;20201;-94
2021/10/01 18:18:33;;;;;;;8.13;3.67;;;;;;;;;;4854419;29;20669;-90
2021/10/01 18:21:45;;;;;;;9.55;3.70;;;;;;;;;;4852933;29;20251;-92
2021/10/01 18:24:56;;;;;;;7.00;3.53;;;;;;;;;;4853059;29;20218;-89
2021/10/01 18:28:10;;;;;;;8.20;3.70;;;;;;;;;;4853493;29;20203;-91
2021/10/01 18:31:21;;;;;;;10.07;4.00;;;;;;;;;;4852196;29;20199;-90
2021/10/01 18:34:33;;;;;;;9.05;4.70;;;;;;;;;;4851940;29;20190;-93
2021/10/01 18:37:45;;;;;;;7.18;4.00;;;;;;;;;;4850748;29;20218;-92
2021/10/01 18:40:59;;;;;;;8.10;3.88;;;;;;;;;;4854938;29;20296;-90
2021/10/01 18:44:11;;;;;;;15.82;6.05;;;;;;;;;;4852360;29;20202;-91
2021/10/01 18:47:23;;;;;;;18.58;6.88;;;;;;;;;;4853965;29;20195;-90
2021/10/01 18:50:37;;;;;;;13.50;4.78;;;;;;;;;;4853680;29;20263;-90
2021/10/01 18:53:48;;;;;;;16.67;5.47;;;;;;;;;;4855339;29;20199;-90
2021/10/01 18:57:00;;;;;;;10.50;4.15;;;;;;;;;;4853274;29;20202;-90
2021/10/01 19:00:15;;;;;;;13.48;4.63;;;;;;;;;;4852203;29;20325;-90
2021/10/01 19:03:31;;;;;;;9.70;4.30;;;;;;;;;;4853800;29;20202;-92
2021/10/01 19:06:43;;;;;;;13.52;4.80;;;;;;;;;;4856230;29;20230;-90
2021/10/01 19:09:55;;;;;;;10.52;5.85;;;;;;;;;;4858005;29;20218;-90
2021/10/01 19:13:11;;;;;;;15.50;6.20;;;;;;;;;;4858395;29;20229;-91
2021/10/01 19:16:26;;;;;;;15.52;6.25;;;;;;;;;;4856019;29;20236;-92
2021/10/01 19:19:38;;;;;;;20.90;6.57;;;;;;;;;;4855823;29;20653;-91
2021/10/01 19:22:54;;;;;;;18.08;7.00;;;;;;;;;;4855631;29;20243;-91
2021/10/01 19:26:17;;;;;;;9.63;4.55;;;;;;;;;;4855307;29;20222;-91
2021/10/01 19:33:00;;;;;;;13.27;5.32;;;;;;;;;;4854123;29;20630;-91
2021/10/01 19:36:13;;;;;;;13.95;5.68;;;;;;;;;;4854560;29;20279;-91
2021/10/01 19:39:24;;;;;;;20.10;7.93;;;;;;;;;;4853907;29;20190;-91
2021/10/01 19:42:36;;;;;;;20.92;8.65;;;;;;;;;;4857073;29;20210;-90
2021/10/01 19:45:49;;;;;;;15.93;7.00;;;;;;;;;;4854518;29;20254;-91
2021/10/01 19:49:02;;;;;;;17.90;6.80;;;;;;;;;;4853499;29;20247;-92
2021/10/01 19:52:14;;;;;;;21.33;7.53;;;;;;;;;;4852947;29;20232;-91
2021/10/01 19:55:26;;;;;;;20.73;7.53;;;;;;;;;;4853124;29;20412;-90
2021/10/01 19:58:38;;;;;;;30.45;12.25;;;;;;;;;;4853608;29;20203;-90
2021/10/01 20:01:56;;;;;;;22.65;10.35;;;;;;;;;;4852934;29;20301;-91
2021/10/01 20:05:12;;;;;;;11.60;5.93;;;;;;;;;;4852625;29;20243;-92
2021/10/01 20:08:24;;;;;;;14.70;4.20;;;;;;;;;;4852023;29;20234;-91
2021/10/01 20:11:36;;;;;;;6.65;3.90;;;;;;;;;;4851127;29;20198;-92
2021/10/01 20:14:49;;;;;;;10.95;4.05;;;;;;;;;;4851882;29;20259;-91
2021/10/01 20:18:01;;;;;;;9.50;3.90;;;;;;;;;;4852323;29;20202;-90
2021/10/01 20:21:17;;;;;;;18.63;9.50;;;;;;;;;;4852074;29;20199;-91
2021/10/01 20:25:00;;;;;;;11.88;4.32;;;;;;;;;;4850083;29;20218;-92
2021/10/01 20:49:06;;;;;;;8.50;4.47;;;;;;;;;;4850142;29;20624;-92
2021/10/01 20:52:19;;;;;;;10.02;5.18;;;;;;;;;;4851263;29;20216;-91
2021/10/01 20:55:33;;;;;;;12.90;4.83;;;;;;;;;;4852624;29;20278;-92
2021/10/01 20:58:48;;;;;;;9.90;4.47;;;;;;;;;;4852145;29;20309;-91
2021/10/01 21:02:16;;;;;;;16.88;4.43;;;;;;;;;;4851176;29;20368;-90
2021/10/01 21:40:56;;;;;;;9.07;4.07;;;;;;;;;;4852902;29;20206;-92
2021/10/01 21:47:55;;;;;;;6.68;3.75;;;;;;;;;;4851117;29;20194;-89
2021/10/01 21:51:06;;;;;;;10.63;4.20;;;;;;;;;;4851749;29;20365;-92
2021/10/01 21:54:19;;;;;;;12.38;5.35;;;;;;;;;;4850586;29;20311;-92
2021/10/01 21:57:31;;;;;;;8.47;4.43;;;;;;;;;;4850530;29;20199;-89
2021/10/01 22:00:56;;;;;;;7.93;4.43;;;;;;;;;;4850173;29;20580;-91
2021/10/01 22:08:30;;;;;;;7.50;4.13;;;;;;;;;;4839937;29;20215;-91
2021/10/01 22:11:53;;;;;;;8.67;4.30;;;;;;;;;;4849295;29;20697;-90
2021/10/01 22:15:09;;;;;;;8.63;4.00;;;;;;;;;;4849215;29;20247;-90
2021/10/01 22:21:51;;;;;;;8.43;4.47;;;;;;;;;;4849886;29;20255;-90